Time;durP1;ratioP1;P1;durP2;ratioP2;P2;SDS_P1;SDS_P2;PMS_P1;PMS_P2;Temp;Humidity;BMP_temperature;BMP_pressure;BME280_temperature;BME280_humidity;BME280_pressure;Samples;Min_cycle;Max_cycle;Signal;HPM_P1;HPM_P2
2022/08/09 00:00:46;;;;;;;;;;;20.60;64.00;;;;;;5090795;28;20003;-62
2022/08/09 00:03:11;;;;;;;;;;;20.60;64.10;;;;;;5090076;28;19952;-61
2022/08/09 00:05:37;;;;;;;;;;;20.60;64.30;;;;;;5085071;28;19938;-67
2022/08/09 00:08:02;;;;;;;;;;;20.50;64.20;;;;;;5088372;28;19916;-67
2022/08/09 00:10:28;;;;;;;;;;;20.60;64.30;;;;;;5089246;28;20002;-67
2022/08/09 00:12:53;;;;;;;;;;;20.50;64.40;;;;;;5090419;28;20016;-66
2022/08/09 00:15:20;;;;;;;;;;;20.50;64.50;;;;;;5090607;28;20375;-61
2022/08/09 00:17:46;;;;;;;;;;;20.40;64.60;;;;;;5090378;28;19919;-61
2022/08/09 00:20:11;;;;;;;;;;;20.40;64.60;;;;;;5090300;28;19912;-66
2022/08/09 00:22:37;;;;;;;;;;;20.40;64.70;;;;;;5084659;28;20269;-66
2022/08/09 00:25:02;;;;;;;;;;;20.40;64.80;;;;;;5089449;28;19913;-66
2022/08/09 00:27:28;;;;;;;;;;;20.40;64.80;;;;;;5088750;28;19973;-61
2022/08/09 00:29:54;;;;;;;;;;;20.30;64.80;;;;;;5090689;28;20341;-66
2022/08/09 00:32:20;;;;;;;;;;;20.30;64.90;;;;;;5088655;28;19979;-61
2022/08/09 00:34:46;;;;;;;;;;;20.30;65.10;;;;;;5083971;28;19920;-61
2022/08/09 00:37:11;;;;;;;;;;;20.30;65.10;;;;;;5088298;28;20298;-62
2022/08/09 00:39:37;;;;;;;;;;;20.20;65.20;;;;;;5087103;28;20225;-61
2022/08/09 00:42:02;;;;;;;;;;;20.20;65.30;;;;;;5088678;28;20018;-62
2022/08/09 00:44:28;;;;;;;;;;;20.20;65.40;;;;;;5082888;28;20005;-61
2022/08/09 00:46:54;;;;;;;;;;;20.20;65.50;;;;;;5089013;28;19931;-63
2022/08/09 00:49:19;;;;;;;;;;;20.10;65.40;;;;;;5087164;28;19912;-62
2022/08/09 00:51:45;;;;;;;;;;;20.20;65.50;;;;;;5088149;28;19919;-67
2022/08/09 00:54:11;;;;;;;;;;;20.10;65.50;;;;;;5088080;28;19920;-67
2022/08/09 00:56:36;;;;;;;;;;;20.10;65.60;;;;;;5087474;28;20377;-68
2022/08/09 00:59:02;;;;;;;;;;;20.10;65.50;;;;;;5086001;28;19973;-67
2022/08/09 01:01:31;;;;;;;;;;;20.10;65.60;;;;;;5088274;28;19920;-68
2022/08/09 01:03:59;;;;;;;;;;;20.10;65.70;;;;;;5088641;28;19955;-68
2022/08/09 01:06:41;;;;;;;;;;;20.10;65.90;;;;;;5089376;28;20328;-67
2022/08/09 01:09:12;;;;;;;;;;;20.00;65.90;;;;;;5075609;28;19916;-68
2022/08/09 01:11:45;;;;;;;;;;;20.00;66.00;;;;;;5087543;28;20199;-61
2022/08/09 01:14:16;;;;;;;;;;;20.00;66.00;;;;;;5080271;28;20011;-62
2022/08/09 01:16:43;;;;;;;;;;;20.00;66.10;;;;;;5089261;28;20433;-62
2022/08/09 01:19:27;;;;;;;;;;;19.90;66.20;;;;;;5089440;28;20457;-66
2022/08/09 01:22:04;;;;;;;;;;;19.90;66.20;;;;;;5089362;28;19923;-67
2022/08/09 01:24:41;;;;;;;;;;;19.90;66.30;;;;;;5086450;28;19912;-63
2022/08/09 01:27:19;;;;;;;;;;;19.90;66.50;;;;;;5087668;28;19931;-62
2022/08/09 01:29:49;;;;;;;;;;;19.80;66.60;;;;;;5083169;28;19917;-67
2022/08/09 01:32:16;;;;;;;;;;;19.80;66.70;;;;;;5090176;28;20442;-68
2022/08/09 01:34:43;;;;;;;;;;;19.70;66.70;;;;;;5089979;28;19927;-68
2022/08/09 01:37:10;;;;;;;;;;;19.70;66.80;;;;;;5087333;28;19916;-63
2022/08/09 01:39:36;;;;;;;;;;;19.70;66.90;;;;;;5087453;28;19924;-63
2022/08/09 01:42:03;;;;;;;;;;;19.60;67.00;;;;;;5079471;28;19912;-68
2022/08/09 01:44:29;;;;;;;;;;;19.60;67.20;;;;;;5088067;28;19961;-68
2022/08/09 01:46:56;;;;;;;;;;;19.60;67.30;;;;;;5088259;28;20432;-68
2022/08/09 01:49:23;;;;;;;;;;;19.60;67.50;;;;;;5089998;28;19908;-61
2022/08/09 01:51:51;;;;;;;;;;;19.60;67.40;;;;;;5088835;28;20053;-67
2022/08/09 01:54:17;;;;;;;;;;;19.50;67.40;;;;;;5081455;28;20264;-68
2022/08/09 01:56:44;;;;;;;;;;;19.50;67.60;;;;;;5084524;28;19977;-68
2022/08/09 01:59:12;;;;;;;;;;;19.50;67.70;;;;;;5079802;28;19918;-68
2022/08/09 02:01:38;;;;;;;;;;;19.50;67.70;;;;;;5084947;28;19919;-68
2022/08/09 02:04:05;;;;;;;;;;;19.40;67.80;;;;;;5088645;28;19916;-68
2022/08/09 02:09:17;;;;;;;;;;;19.40;68.10;;;;;;5088100;28;19918;-68
2022/08/09 02:11:43;;;;;;;;;;;19.40;68.10;;;;;;5087370;28;20345;-68
2022/08/09 02:14:09;;;;;;;;;;;19.40;68.10;;;;;;5086738;28;19944;-69
2022/08/09 02:16:36;;;;;;;;;;;19.40;68.10;;;;;;5088204;28;19912;-68
2022/08/09 02:19:02;;;;;;;;;;;19.40;68.20;;;;;;5089051;28;19912;-68
2022/08/09 02:21:31;;;;;;;;;;;19.40;68.30;;;;;;5088683;28;19920;-66
2022/08/09 02:23:58;;;;;;;;;;;19.40;68.20;;;;;;5087263;28;19916;-61
2022/08/09 02:26:26;;;;;;;;;;;19.40;68.20;;;;;;5087961;28;19924;-61
2022/08/09 02:28:53;;;;;;;;;;;19.40;68.20;;;;;;5085327;28;19928;-61
2022/08/09 02:31:26;;;;;;;;;;;19.40;68.20;;;;;;5084228;28;20313;-65
2022/08/09 02:33:53;;;;;;;;;;;19.40;68.30;;;;;;5089382;28;19905;-61
2022/08/09 02:36:25;;;;;;;;;;;19.40;68.30;;;;;;5089318;28;19916;-61
2022/08/09 02:38:52;;;;;;;;;;;19.40;68.30;;;;;;5088523;28;19924;-61
2022/08/09 02:41:25;;;;;;;;;;;19.40;68.40;;;;;;5087161;28;19927;-61
2022/08/09 02:43:53;;;;;;;;;;;19.40;68.40;;;;;;5086301;28;20308;-66
2022/08/09 02:46:19;;;;;;;;;;;19.40;68.50;;;;;;5089562;28;20611;-66
2022/08/09 02:48:45;;;;;;;;;;;19.30;68.60;;;;;;5091682;28;19959;-61
2022/08/09 02:51:13;;;;;;;;;;;19.30;68.70;;;;;;5095944;28;19920;-61
2022/08/09 02:53:50;;;;;;;;;;;19.30;68.80;;;;;;5091517;28;19912;-66
2022/08/09 02:56:17;;;;;;;;;;;19.20;68.80;;;;;;5089403;28;20003;-61
2022/08/09 02:58:44;;;;;;;;;;;19.20;68.90;;;;;;5089917;28;19991;-68
2022/08/09 03:01:10;;;;;;;;;;;19.20;68.90;;;;;;5091706;28;19923;-68
2022/08/09 03:03:36;;;;;;;;;;;19.20;69.00;;;;;;5091827;28;20062;-63
2022/08/09 03:06:04;;;;;;;;;;;19.20;69.00;;;;;;5090595;28;19916;-61
2022/08/09 03:08:31;;;;;;;;;;;19.10;69.10;;;;;;5089519;28;19923;-61
2022/08/09 03:10:57;;;;;;;;;;;19.10;69.10;;;;;;5090411;28;20455;-63
2022/08/09 03:13:23;;;;;;;;;;;19.10;69.20;;;;;;5090231;28;19964;-61
2022/08/09 03:15:50;;;;;;;;;;;19.10;69.30;;;;;;5089850;28;19916;-61
2022/08/09 03:18:16;;;;;;;;;;;19.10;69.30;;;;;;5080932;28;19912;-66
2022/08/09 03:20:42;;;;;;;;;;;19.10;69.40;;;;;;5088848;28;19923;-62
2022/08/09 03:23:08;;;;;;;;;;;19.10;69.40;;;;;;5088960;28;19950;-66
2022/08/09 03:25:34;;;;;;;;;;;19.10;69.60;;;;;;5088910;28;20278;-62
2022/08/09 03:28:00;;;;;;;;;;;19.10;69.70;;;;;;5089774;28;20371;-66
2022/08/09 03:30:27;;;;;;;;;;;19.00;69.70;;;;;;5079826;28;19969;-62
2022/08/09 03:32:53;;;;;;;;;;;19.00;70.00;;;;;;5088665;28;19962;-62
2022/08/09 03:35:19;;;;;;;;;;;19.00;70.10;;;;;;5088778;28;19961;-66
2022/08/09 03:37:45;;;;;;;;;;;18.90;70.30;;;;;;5086292;28;19919;-67
2022/08/09 03:40:11;;;;;;;;;;;18.90;70.30;;;;;;5090731;28;19919;-66
2022/08/09 03:42:36;;;;;;;;;;;18.90;70.30;;;;;;5075514;28;20337;-62
2022/08/09 03:45:02;;;;;;;;;;;18.80;70.30;;;;;;5086093;28;20007;-62
2022/08/09 03:47:28;;;;;;;;;;;18.80;70.40;;;;;;5083026;28;20042;-62
2022/08/09 03:49:54;;;;;;;;;;;18.80;70.40;;;;;;5079284;28;19923;-62
2022/08/09 03:52:20;;;;;;;;;;;18.80;70.50;;;;;;5089695;28;19916;-61
2022/08/09 03:54:47;;;;;;;;;;;18.70;70.60;;;;;;5081211;28;19951;-61
2022/08/09 03:57:13;;;;;;;;;;;18.70;70.70;;;;;;5088911;28;19924;-62
2022/08/09 03:59:40;;;;;;;;;;;18.70;70.80;;;;;;5090523;28;19912;-61
2022/08/09 04:02:06;;;;;;;;;;;18.70;70.80;;;;;;5101597;28;19924;-62
2022/08/09 04:04:32;;;;;;;;;;;18.70;71.00;;;;;;5081441;28;20332;-66
2022/08/09 04:06:57;;;;;;;;;;;18.70;70.90;;;;;;5087982;28;20011;-66
2022/08/09 04:09:24;;;;;;;;;;;18.70;70.90;;;;;;5087701;28;19973;-61
2022/08/09 04:11:49;;;;;;;;;;;18.70;70.80;;;;;;5085405;28;19934;-66
2022/08/09 04:14:20;;;;;;;;;;;18.70;70.80;;;;;;5090211;28;19917;-66
2022/08/09 04:16:46;;;;;;;;;;;18.70;70.80;;;;;;5095429;28;19919;-61
2022/08/09 04:19:16;;;;;;;;;;;18.70;70.80;;;;;;5098962;28;19912;-61
2022/08/09 04:21:41;;;;;;;;;;;18.60;70.70;;;;;;5079255;28;19947;-62
2022/08/09 04:24:07;;;;;;;;;;;18.60;70.80;;;;;;5088216;28;19920;-61
2022/08/09 04:26:33;;;;;;;;;;;18.60;71.00;;;;;;5082870;28;19970;-61
2022/08/09 04:28:58;;;;;;;;;;;18.60;71.10;;;;;;5083576;28;19919;-61
2022/08/09 04:31:25;;;;;;;;;;;18.60;71.20;;;;;;5072041;28;20359;-61
2022/08/09 04:33:50;;;;;;;;;;;18.60;71.40;;;;;;5070811;28;19963;-61
2022/08/09 04:36:16;;;;;;;;;;;18.50;71.30;;;;;;5077360;28;19928;-61
2022/08/09 04:38:41;;;;;;;;;;;18.60;71.40;;;;;;5070609;28;20147;-61
2022/08/09 04:41:07;;;;;;;;;;;18.60;71.30;;;;;;5074646;28;19920;-66
2022/08/09 04:43:33;;;;;;;;;;;18.60;71.30;;;;;;5073379;28;19916;-66
2022/08/09 04:45:59;;;;;;;;;;;18.60;71.30;;;;;;5068979;28;20232;-61
2022/08/09 04:48:25;;;;;;;;;;;18.60;71.40;;;;;;5081013;28;19920;-66
2022/08/09 04:50:51;;;;;;;;;;;18.50;71.50;;;;;;5074242;28;19916;-61
2022/08/09 04:53:16;;;;;;;;;;;18.50;71.50;;;;;;5089241;28;19944;-66
2022/08/09 04:55:42;;;;;;;;;;;18.50;71.70;;;;;;5072534;28;20023;-66
2022/08/09 04:58:07;;;;;;;;;;;18.50;71.70;;;;;;5086415;28;19917;-62
2022/08/09 05:00:33;;;;;;;;;;;18.50;71.70;;;;;;5072227;28;19916;-67
2022/08/09 05:03:03;;;;;;;;;;;18.50;71.70;;;;;;5084801;28;19943;-62
2022/08/09 05:05:29;;;;;;;;;;;18.60;71.80;;;;;;5072464;28;19970;-62
2022/08/09 05:07:55;;;;;;;;;;;18.60;71.70;;;;;;5070012;28;20313;-62
2022/08/09 05:10:20;;;;;;;;;;;18.60;71.80;;;;;;5070321;28;20459;-62
2022/08/09 05:12:46;;;;;;;;;;;18.70;71.70;;;;;;5071107;28;19920;-67
2022/08/09 05:15:11;;;;;;;;;;;18.70;71.70;;;;;;5074364;28;20007;-62
2022/08/09 05:17:37;;;;;;;;;;;18.80;71.60;;;;;;5076794;28;19952;-67
2022/08/09 05:20:03;;;;;;;;;;;18.80;71.60;;;;;;5079856;28;19995;-67
2022/08/09 05:22:28;;;;;;;;;;;18.80;71.60;;;;;;5070419;28;19923;-67
2022/08/09 05:24:54;;;;;;;;;;;18.80;71.60;;;;;;5070924;28;19916;-67
2022/08/09 05:27:20;;;;;;;;;;;18.80;71.60;;;;;;5069050;28;20243;-67
2022/08/09 05:29:45;;;;;;;;;;;18.90;71.50;;;;;;5076198;28;20355;-67
2022/08/09 05:32:11;;;;;;;;;;;19.00;71.50;;;;;;5087884;28;20469;-67
2022/08/09 05:34:36;;;;;;;;;;;19.00;71.30;;;;;;5093356;28;20369;-67
2022/08/09 05:37:03;;;;;;;;;;;19.00;71.20;;;;;;5088306;28;19916;-67
2022/08/09 05:39:29;;;;;;;;;;;19.10;71.30;;;;;;5085008;28;20399;-62
2022/08/09 05:41:54;;;;;;;;;;;19.10;71.20;;;;;;5088484;28;20015;-62
2022/08/09 05:44:20;;;;;;;;;;;19.10;71.30;;;;;;5083678;28;20041;-67
2022/08/09 05:46:45;;;;;;;;;;;19.20;71.40;;;;;;5084973;28;19917;-62
2022/08/09 05:49:11;;;;;;;;;;;19.20;71.30;;;;;;5085346;28;19924;-67
2022/08/09 05:51:36;;;;;;;;;;;19.20;71.30;;;;;;5086745;28;19921;-62
2022/08/09 05:54:02;;;;;;;;;;;19.30;71.30;;;;;;5081629;28;19965;-63
2022/08/09 05:56:27;;;;;;;;;;;19.30;71.30;;;;;;5082527;28;19931;-68
2022/08/09 05:58:56;;;;;;;;;;;19.30;71.20;;;;;;5080001;28;19917;-63
2022/08/09 06:01:31;;;;;;;;;;;19.40;71.10;;;;;;5081508;28;20385;-63
2022/08/09 06:03:57;;;;;;;;;;;19.40;71.00;;;;;;5076760;28;19943;-60
2022/08/09 06:06:22;;;;;;;;;;;19.50;71.00;;;;;;5090989;28;20564;-61
2022/08/09 06:08:48;;;;;;;;;;;19.50;71.00;;;;;;5091088;28;19916;-61
2022/08/09 06:11:14;;;;;;;;;;;19.50;70.90;;;;;;5090416;28;19916;-61
2022/08/09 06:13:39;;;;;;;;;;;19.60;70.90;;;;;;5088891;28;20029;-61
2022/08/09 06:16:05;;;;;;;;;;;19.60;70.80;;;;;;5099921;28;19911;-61
2022/08/09 06:18:31;;;;;;;;;;;19.60;70.80;;;;;;5109898;28;19958;-61
2022/08/09 06:20:56;;;;;;;;;;;19.60;70.70;;;;;;5098720;27;19915;-61
2022/08/09 06:23:22;;;;;;;;;;;19.70;70.50;;;;;;5108547;28;19923;-61
2022/08/09 06:25:48;;;;;;;;;;;19.80;70.50;;;;;;5107580;28;19998;-68
2022/08/09 06:28:14;;;;;;;;;;;19.90;70.40;;;;;;5099435;28;20008;-61
2022/08/09 06:30:41;;;;;;;;;;;19.90;70.10;;;;;;5103693;28;19977;-61
2022/08/09 06:33:06;;;;;;;;;;;20.00;70.00;;;;;;5108999;28;20218;-61
2022/08/09 06:35:32;;;;;;;;;;;20.10;70.00;;;;;;5109191;28;19916;-68
2022/08/09 06:37:58;;;;;;;;;;;20.10;69.80;;;;;;5108365;28;19926;-61
2022/08/09 06:40:23;;;;;;;;;;;20.20;69.70;;;;;;5110283;28;19927;-61
2022/08/09 06:42:49;;;;;;;;;;;20.30;69.50;;;;;;5109379;28;20002;-68
2022/08/09 06:45:14;;;;;;;;;;;20.30;69.40;;;;;;5109707;28;19947;-68
2022/08/09 06:47:40;;;;;;;;;;;20.40;69.30;;;;;;5089821;28;19985;-68
2022/08/09 06:50:06;;;;;;;;;;;20.50;69.20;;;;;;5106524;28;19922;-68
2022/08/09 06:52:32;;;;;;;;;;;20.50;69.00;;;;;;5105272;28;19968;-68
2022/08/09 06:54:57;;;;;;;;;;;20.60;68.90;;;;;;5101740;28;19920;-62
2022/08/09 06:57:23;;;;;;;;;;;20.70;68.70;;;;;;5093153;28;19990;-68
2022/08/09 06:59:48;;;;;;;;;;;20.80;68.60;;;;;;5103214;28;19920;-61
2022/08/09 07:02:14;;;;;;;;;;;20.90;68.40;;;;;;5104909;28;19993;-61
2022/08/09 07:04:39;;;;;;;;;;;21.00;68.40;;;;;;5105610;28;19973;-68
2022/08/09 07:07:05;;;;;;;;;;;21.00;68.20;;;;;;5103940;28;19920;-68
2022/08/09 07:09:31;;;;;;;;;;;21.20;68.00;;;;;;5099045;28;19919;-68
2022/08/09 07:11:56;;;;;;;;;;;21.20;67.80;;;;;;5101556;28;20443;-61
2022/08/09 07:14:22;;;;;;;;;;;21.30;67.60;;;;;;5098170;28;19965;-61
2022/08/09 07:16:47;;;;;;;;;;;21.40;67.50;;;;;;5101690;28;19916;-68
2022/08/09 07:19:14;;;;;;;;;;;21.40;67.30;;;;;;5103643;28;19965;-68
2022/08/09 07:21:41;;;;;;;;;;;21.50;67.10;;;;;;5093770;28;19916;-68
2022/08/09 07:24:06;;;;;;;;;;;21.60;66.90;;;;;;5092019;28;19915;-68
2022/08/09 07:26:32;;;;;;;;;;;21.70;66.70;;;;;;5088899;28;20296;-68
2022/08/09 07:28:58;;;;;;;;;;;21.70;66.50;;;;;;5098970;28;19953;-68
2022/08/09 07:31:24;;;;;;;;;;;21.80;66.40;;;;;;5102635;28;19963;-61
2022/08/09 07:33:50;;;;;;;;;;;21.90;66.20;;;;;;5106581;28;19920;-62
2022/08/09 07:36:15;;;;;;;;;;;21.90;65.90;;;;;;5084505;28;19919;-61
2022/08/09 07:38:41;;;;;;;;;;;22.00;65.70;;;;;;5082819;28;19983;-61
2022/08/09 07:41:07;;;;;;;;;;;22.10;65.50;;;;;;5097869;28;20018;-61
2022/08/09 07:43:32;;;;;;;;;;;22.20;66.00;;;;;;5080821;28;20366;-63
2022/08/09 07:45:58;;;;;;;;;;;22.20;65.20;;;;;;5079734;28;19920;-69
2022/08/09 07:48:23;;;;;;;;;;;22.30;65.10;;;;;;5078549;28;19935;-69
2022/08/09 07:50:49;;;;;;;;;;;22.40;65.00;;;;;;5081848;28;19989;-69
2022/08/09 07:53:15;;;;;;;;;;;22.50;64.60;;;;;;5081879;28;20268;-69
2022/08/09 07:55:40;;;;;;;;;;;22.60;64.30;;;;;;5079885;28;20373;-69
2022/08/09 07:58:06;;;;;;;;;;;22.70;64.10;;;;;;5081937;28;19922;-66
2022/08/09 08:00:32;;;;;;;;;;;22.80;63.80;;;;;;5078061;28;19962;-69
2022/08/09 08:02:58;;;;;;;;;;;22.80;63.50;;;;;;5075830;28;19924;-67
2022/08/09 08:05:24;;;;;;;;;;;22.90;63.20;;;;;;5085026;28;19926;-67
2022/08/09 08:07:50;;;;;;;;;;;23.00;62.90;;;;;;5075815;28;19928;-67
2022/08/09 08:10:16;;;;;;;;;;;23.10;63.40;;;;;;5086799;28;19955;-67
2022/08/09 08:12:42;;;;;;;;;;;23.20;62.30;;;;;;5077592;28;19916;-67
2022/08/09 08:15:08;;;;;;;;;;;23.20;61.80;;;;;;5080575;28;19920;-67
2022/08/09 08:17:34;;;;;;;;;;;23.20;61.60;;;;;;5085555;28;19924;-67
2022/08/09 08:19:59;;;;;;;;;;;23.30;61.10;;;;;;5089410;28;19920;-67
2022/08/09 08:22:25;;;;;;;;;;;23.40;60.70;;;;;;5086002;28;19923;-67
2022/08/09 08:24:54;;;;;;;;;;;23.50;60.60;;;;;;5087092;28;19920;-67
2022/08/09 08:27:23;;;;;;;;;;;23.50;60.20;;;;;;5085006;28;19924;-67
2022/08/09 08:29:49;;;;;;;;;;;23.60;59.70;;;;;;5081028;28;19916;-68
2022/08/09 08:32:15;;;;;;;;;;;23.70;59.50;;;;;;5083558;28;20343;-68
2022/08/09 08:34:40;;;;;;;;;;;23.80;59.50;;;;;;5086157;28;20006;-68
2022/08/09 08:37:07;;;;;;;;;;;23.90;58.70;;;;;;5075818;28;19982;-61
2022/08/09 08:39:32;;;;;;;;;;;24.00;58.80;;;;;;5089304;28;19915;-61
2022/08/09 08:41:58;;;;;;;;;;;24.10;57.80;;;;;;5083318;28;20805;-61
2022/08/09 08:44:24;;;;;;;;;;;24.10;58.40;;;;;;5081487;28;19916;-61
2022/08/09 08:46:49;;;;;;;;;;;24.10;57.70;;;;;;5081120;28;19927;-62
2022/08/09 08:49:15;;;;;;;;;;;24.20;57.40;;;;;;5083320;28;20351;-61
2022/08/09 08:51:41;;;;;;;;;;;24.40;57.10;;;;;;5080349;28;19920;-63
2022/08/09 08:54:07;;;;;;;;;;;24.40;56.40;;;;;;5086128;28;20669;-62
2022/08/09 08:56:36;;;;;;;;;;;24.50;55.80;;;;;;5085811;28;19935;-62
2022/08/09 08:59:06;;;;;;;;;;;24.60;55.90;;;;;;5077219;28;19913;-62
2022/08/09 09:01:34;;;;;;;;;;;24.70;55.50;;;;;;5099573;28;19970;-68
2022/08/09 09:04:00;;;;;;;;;;;24.70;55.30;;;;;;5087329;28;19916;-68
2022/08/09 09:06:26;;;;;;;;;;;24.80;55.00;;;;;;5084787;28;20279;-68
2022/08/09 09:08:52;;;;;;;;;;;24.90;55.00;;;;;;5085525;28;19913;-68
2022/08/09 09:11:18;;;;;;;;;;;25.00;54.70;;;;;;5088553;28;19956;-69
2022/08/09 09:13:45;;;;;;;;;;;25.10;54.30;;;;;;5083007;28;20496;-69
2022/08/09 09:16:11;;;;;;;;;;;25.20;54.30;;;;;;5084606;28;20336;-68
2022/08/09 09:18:37;;;;;;;;;;;25.20;53.60;;;;;;5085828;28;19961;-69
2022/08/09 09:21:05;;;;;;;;;;;25.30;53.60;;;;;;5087140;28;19916;-62
2022/08/09 09:23:51;;;;;;;;;;;25.40;53.40;;;;;;5085198;28;19942;-62
2022/08/09 09:26:21;;;;;;;;;;;25.50;53.80;;;;;;5089359;28;19912;-62
2022/08/09 09:28:47;;;;;;;;;;;25.60;53.20;;;;;;5088380;28;19916;-62
2022/08/09 09:31:16;;;;;;;;;;;25.70;52.80;;;;;;5083164;28;20057;-62
2022/08/09 09:33:42;;;;;;;;;;;25.80;52.30;;;;;;5096292;28;19970;-68
2022/08/09 09:36:08;;;;;;;;;;;25.90;52.10;;;;;;5085481;28;19997;-62
2022/08/09 09:38:56;;;;;;;;;;;26.00;51.70;;;;;;5078898;28;20006;-62
2022/08/09 09:41:22;;;;;;;;;;;26.10;51.40;;;;;;5100153;28;19920;-62
2022/08/09 09:43:48;;;;;;;;;;;26.10;50.40;;;;;;5098024;28;20352;-63
2022/08/09 09:46:13;;;;;;;;;;;26.20;50.20;;;;;;5099028;28;19945;-62
2022/08/09 09:48:53;;;;;;;;;;;26.20;50.00;;;;;;5099198;28;20415;-63
2022/08/09 09:51:19;;;;;;;;;;;26.20;50.20;;;;;;5084928;28;19923;-62
2022/08/09 09:53:45;;;;;;;;;;;26.40;50.00;;;;;;5090861;28;19920;-62
2022/08/09 09:56:10;;;;;;;;;;;26.40;49.80;;;;;;5094817;28;19980;-62
2022/08/09 09:58:43;;;;;;;;;;;26.60;49.60;;;;;;5082064;28;19922;-62
2022/08/09 10:01:16;;;;;;;;;;;26.60;49.80;;;;;;5084389;28;19924;-63
2022/08/09 10:03:43;;;;;;;;;;;26.80;49.80;;;;;;5088403;28;19938;-62
2022/08/09 10:06:10;;;;;;;;;;;26.90;49.70;;;;;;5086784;28;19916;-62
2022/08/09 10:08:36;;;;;;;;;;;26.90;48.60;;;;;;5080994;28;20321;-62
2022/08/09 10:11:14;;;;;;;;;;;27.10;48.20;;;;;;5089025;28;19926;-62
2022/08/09 10:13:40;;;;;;;;;;;27.20;48.20;;;;;;5088238;28;19920;-62
2022/08/09 10:16:06;;;;;;;;;;;27.30;48.10;;;;;;5092003;28;19924;-62
2022/08/09 10:18:32;;;;;;;;;;;27.40;48.00;;;;;;5081093;28;20000;-62
2022/08/09 10:21:08;;;;;;;;;;;27.60;47.70;;;;;;5092356;28;20337;-62
2022/08/09 10:23:34;;;;;;;;;;;27.70;47.60;;;;;;5086856;28;19999;-62
2022/08/09 10:26:01;;;;;;;;;;;27.90;47.50;;;;;;5093082;28;19912;-62
2022/08/09 10:28:30;;;;;;;;;;;27.90;47.10;;;;;;5087449;28;19920;-62
2022/08/09 10:30:56;;;;;;;;;;;28.00;47.20;;;;;;5093057;28;19912;-63
2022/08/09 10:33:23;;;;;;;;;;;28.10;47.00;;;;;;5099460;28;20260;-69
2022/08/09 10:35:49;;;;;;;;;;;28.10;46.80;;;;;;5087091;28;20441;-69
2022/08/09 10:38:15;;;;;;;;;;;28.20;46.70;;;;;;5091874;28;19959;-69
2022/08/09 10:40:43;;;;;;;;;;;28.40;46.70;;;;;;5089432;28;19961;-69
2022/08/09 10:43:08;;;;;;;;;;;28.50;46.40;;;;;;5086713;28;19917;-70
2022/08/09 10:45:35;;;;;;;;;;;28.60;45.00;;;;;;5081917;28;19969;-69
2022/08/09 10:48:04;;;;;;;;;;;28.70;45.10;;;;;;5080917;28;19982;-69
2022/08/09 10:51:05;;;;;;;;;;;28.70;44.60;;;;;;5070739;28;19912;-69
2022/08/09 10:53:31;;;;;;;;;;;28.80;45.00;;;;;;5029652;28;20554;-69
2022/08/09 10:56:17;;;;;;;;;;;28.90;44.90;;;;;;5063948;28;19951;-69
2022/08/09 10:58:43;;;;;;;;;;;29.00;44.70;;;;;;5086757;28;19916;-69
2022/08/09 11:01:29;;;;;;;;;;;29.10;44.50;;;;;;5083114;28;19927;-69
2022/08/09 11:04:10;;;;;;;;;;;29.20;44.50;;;;;;5083316;28;19943;-69
2022/08/09 11:06:36;;;;;;;;;;;29.40;43.90;;;;;;5086130;28;20720;-69
2022/08/09 11:09:03;;;;;;;;;;;29.60;43.80;;;;;;5082567;28;19916;-69
2022/08/09 11:11:47;;;;;;;;;;;29.60;43.60;;;;;;5089521;28;19919;-69
2022/08/09 11:14:36;;;;;;;;;;;29.80;43.90;;;;;;5081411;28;19970;-69
2022/08/09 11:17:23;;;;;;;;;;;30.00;43.60;;;;;;5089733;28;19916;-69
2022/08/09 11:19:59;;;;;;;;;;;30.00;42.80;;;;;;5075721;28;19912;-68
2022/08/09 11:22:40;;;;;;;;;;;30.10;42.50;;;;;;5083043;28;19957;-68
2022/08/09 11:25:07;;;;;;;;;;;30.20;42.60;;;;;;5097288;28;19912;-68
2022/08/09 11:27:39;;;;;;;;;;;30.30;41.50;;;;;;5069245;28;19930;-62
2022/08/09 11:30:06;;;;;;;;;;;30.30;41.70;;;;;;5086271;28;20386;-62
2022/08/09 11:32:43;;;;;;;;;;;30.40;42.40;;;;;;5103399;28;19916;-60
2022/08/09 11:35:15;;;;;;;;;;;30.60;41.70;;;;;;5090190;28;20294;-67
2022/08/09 11:37:41;;;;;;;;;;;30.70;41.50;;;;;;5085938;28;19916;-68
2022/08/09 11:40:08;;;;;;;;;;;30.80;41.40;;;;;;5084312;28;19912;-61
2022/08/09 11:42:40;;;;;;;;;;;30.90;40.70;;;;;;5089264;28;19936;-68
2022/08/09 11:45:18;;;;;;;;;;;30.90;39.80;;;;;;5088407;28;19961;-68
2022/08/09 11:47:45;;;;;;;;;;;31.00;40.30;;;;;;5088323;28;20019;-68
2022/08/09 11:50:10;;;;;;;;;;;31.20;40.30;;;;;;5093131;28;19959;-62
2022/08/09 11:52:56;;;;;;;;;;;31.20;40.10;;;;;;5078854;28;20730;-62
2022/08/09 11:55:28;;;;;;;;;;;31.30;40.00;;;;;;5076995;28;20374;-62
2022/08/09 11:57:53;;;;;;;;;;;31.40;39.90;;;;;;5085465;28;19912;-62
2022/08/09 12:00:19;;;;;;;;;;;31.40;39.30;;;;;;5089112;28;19942;-61
2022/08/09 12:02:45;;;;;;;;;;;31.50;39.80;;;;;;5089854;28;19943;-61
2022/08/09 12:05:12;;;;;;;;;;;31.60;39.40;;;;;;5087733;28;19967;-61
2022/08/09 12:07:37;;;;;;;;;;;31.70;38.90;;;;;;5088285;28;19967;-62
2022/08/09 12:10:05;;;;;;;;;;;31.80;38.00;;;;;;5088022;28;20366;-62
2022/08/09 12:12:44;;;;;;;;;;;32.00;37.20;;;;;;5088324;28;19920;-61
2022/08/09 12:15:23;;;;;;;;;;;31.90;36.80;;;;;;5079278;28;19927;-68
2022/08/09 12:17:50;;;;;;;;;;;32.00;37.00;;;;;;5090386;28;19916;-62
2022/08/09 12:20:17;;;;;;;;;;;32.20;37.70;;;;;;5089992;28;19912;-63
2022/08/09 12:22:44;;;;;;;;;;;32.30;37.70;;;;;;5081598;28;20586;-62
2022/08/09 12:25:13;;;;;;;;;;;32.50;37.10;;;;;;5086349;28;19926;-68
2022/08/09 12:27:39;;;;;;;;;;;32.60;37.40;;;;;;5088718;28;19924;-68
2022/08/09 12:30:06;;;;;;;;;;;32.70;37.10;;;;;;5088051;28;20379;-68
2022/08/09 12:32:32;;;;;;;;;;;32.80;36.80;;;;;;5089888;28;19912;-62
2022/08/09 12:34:59;;;;;;;;;;;32.90;36.70;;;;;;5085839;28;19998;-62
2022/08/09 12:37:31;;;;;;;;;;;32.90;36.40;;;;;;5084341;28;19912;-62
2022/08/09 12:39:58;;;;;;;;;;;32.90;36.20;;;;;;5086069;28;19916;-62
2022/08/09 12:42:24;;;;;;;;;;;32.90;36.30;;;;;;5089342;28;19924;-62
2022/08/09 12:44:49;;;;;;;;;;;32.90;36.30;;;;;;5086313;28;20371;-62
2022/08/09 12:47:15;;;;;;;;;;;33.10;36.40;;;;;;5084458;28;19935;-67
2022/08/09 12:49:41;;;;;;;;;;;33.10;36.00;;;;;;5082867;28;20028;-68
2022/08/09 12:52:09;;;;;;;;;;;33.00;35.70;;;;;;5090226;28;19981;-68
2022/08/09 12:54:50;;;;;;;;;;;33.10;35.70;;;;;;5087473;28;19920;-61
2022/08/09 12:57:33;;;;;;;;;;;33.20;35.20;;;;;;5083866;28;20050;-62
2022/08/09 13:00:11;;;;;;;;;;;33.30;35.30;;;;;;5078005;28;19986;-61
2022/08/09 13:02:51;;;;;;;;;;;33.50;35.30;;;;;;5088980;28;19915;-62
2022/08/09 13:05:20;;;;;;;;;;;33.60;35.00;;;;;;5083496;28;20347;-62
2022/08/09 13:08:04;;;;;;;;;;;33.60;35.40;;;;;;5087051;28;19960;-62
2022/08/09 13:10:29;;;;;;;;;;;33.70;35.30;;;;;;5078247;28;20040;-62
2022/08/09 13:12:59;;;;;;;;;;;33.70;35.20;;;;;;5084548;28;19998;-62
2022/08/09 13:15:24;;;;;;;;;;;33.80;35.30;;;;;;5083109;28;20073;-62
2022/08/09 13:17:50;;;;;;;;;;;33.90;35.20;;;;;;5084872;28;19995;-62
2022/08/09 13:20:16;;;;;;;;;;;34.10;35.30;;;;;;5086477;28;19920;-62
2022/08/09 13:22:51;;;;;;;;;;;34.20;34.90;;;;;;5085379;28;19927;-62
2022/08/09 13:25:16;;;;;;;;;;;34.30;34.60;;;;;;5079411;28;20256;-68
2022/08/09 13:27:42;;;;;;;;;;;34.30;34.30;;;;;;5084992;28;19931;-68
2022/08/09 13:30:09;;;;;;;;;;;34.30;34.20;;;;;;5085037;28;19925;-68
2022/08/09 13:32:45;;;;;;;;;;;34.40;34.10;;;;;;5084206;28;19935;-62
2022/08/09 13:35:11;;;;;;;;;;;34.50;34.00;;;;;;5085051;28;19916;-62
2022/08/09 13:37:37;;;;;;;;;;;34.50;34.30;;;;;;5086769;28;19924;-62
2022/08/09 13:40:03;;;;;;;;;;;34.60;34.40;;;;;;5087019;28;20032;-62
2022/08/09 13:42:29;;;;;;;;;;;34.70;34.90;;;;;;5087893;28;19999;-62
2022/08/09 13:44:55;;;;;;;;;;;34.50;33.30;;;;;;5086122;28;20338;-62
2022/08/09 13:47:20;;;;;;;;;;;34.50;33.60;;;;;;5085653;28;19923;-62
2022/08/09 13:49:46;;;;;;;;;;;34.50;34.20;;;;;;5085402;28;19919;-62
2022/08/09 13:52:12;;;;;;;;;;;34.70;33.60;;;;;;5081820;28;19924;-68
2022/08/09 13:54:38;;;;;;;;;;;34.70;33.50;;;;;;5081228;28;19920;-62
2022/08/09 13:57:04;;;;;;;;;;;34.70;33.30;;;;;;5088885;28;19927;-68
2022/08/09 13:59:30;;;;;;;;;;;34.80;33.60;;;;;;5084582;28;19948;-62
2022/08/09 14:01:56;;;;;;;;;;;34.90;33.70;;;;;;5086418;28;19990;-68
2022/08/09 14:04:21;;;;;;;;;;;35.00;33.60;;;;;;5082939;28;19924;-68
2022/08/09 14:06:54;;;;;;;;;;;35.00;33.70;;;;;;5081222;28;20264;-68
2022/08/09 14:09:19;;;;;;;;;;;35.00;33.50;;;;;;5087269;28;19916;-68
2022/08/09 14:11:45;;;;;;;;;;;35.20;32.50;;;;;;5088327;28;19916;-62
2022/08/09 14:14:11;;;;;;;;;;;35.20;32.60;;;;;;5087456;28;19944;-61
2022/08/09 14:16:36;;;;;;;;;;;35.20;32.60;;;;;;5087037;28;20004;-61
2022/08/09 14:19:02;;;;;;;;;;;35.20;32.80;;;;;;5086838;28;19925;-61
2022/08/09 14:21:27;;;;;;;;;;;35.20;32.30;;;;;;5087643;28;19924;-62